Time;durP1;ratioP1;P1;durP2;ratioP2;P2;SDS_P1;SDS_P2;PMS_P1;PMS_P2;Temp;Humidity;BMP_temperature;BMP_pressure;BME280_temperature;BME280_humidity;BME280_pressure;Samples;Min_cycle;Max_cycle;Signal;HPM_P1;HPM_P2
2021/12/14 00:01:40;;;;;;;;;;;;;;;17.77;63.70;101552.09;4990146;28;2012;-40
2021/12/14 00:04:08;;;;;;;;;;;;;;;17.72;63.71;101551.53;4993324;28;1666;-40
2021/12/14 00:06:35;;;;;;;;;;;;;;;17.73;63.74;101568.47;4990921;28;2163;-40
2021/12/14 00:09:03;;;;;;;;;;;;;;;17.68;63.74;101558.06;4993145;28;2098;-40
2021/12/14 00:11:49;;;;;;;;;;;;;;;17.70;63.38;101548.97;4991656;28;1810;-40
2021/12/14 00:14:27;;;;;;;;;;;;;;;17.71;63.64;101560.53;4987352;28;1786;-40
2021/12/14 00:16:57;;;;;;;;;;;;;;;17.71;63.67;101555.19;4989904;28;2016;-40
2021/12/14 00:19:24;;;;;;;;;;;;;;;17.63;63.88;101557.56;4992947;28;1599;-40
2021/12/14 00:21:53;;;;;;;;;;;;;;;17.67;63.46;101559.03;4994781;28;1087;-40
2021/12/14 00:24:20;;;;;;;;;;;;;;;17.67;63.39;101567.06;4993350;28;2029;-40
2021/12/14 00:26:50;;;;;;;;;;;;;;;17.61;63.55;101570.19;4985954;28;1655;-40
2021/12/14 00:29:18;;;;;;;;;;;;;;;17.64;62.85;101562.78;4984891;28;1621;-40
2021/12/14 00:31:45;;;;;;;;;;;;;;;17.63;63.70;101570.94;4993478;28;1809;-40
2021/12/14 00:34:14;;;;;;;;;;;;;;;17.60;63.59;101561.28;4985897;28;2059;-40
2021/12/14 00:36:41;;;;;;;;;;;;;;;17.56;63.68;101566.94;4986476;28;1976;-40
2021/12/14 00:39:09;;;;;;;;;;;;;;;17.54;63.55;101568.88;4992090;28;1838;-39
2021/12/14 00:41:37;;;;;;;;;;;;;;;17.52;63.64;101562.78;4993425;28;2009;-40
2021/12/14 00:44:06;;;;;;;;;;;;;;;17.51;63.64;101575.31;4986516;28;1756;-40
2021/12/14 00:46:33;;;;;;;;;;;;;;;17.48;63.75;101565.66;4986229;28;1953;-40
2021/12/14 00:49:00;;;;;;;;;;;;;;;17.46;63.61;101583.63;4987365;28;1670;-41
2021/12/14 00:51:28;;;;;;;;;;;;;;;17.44;63.51;101572.19;4994677;28;1079;-40
2021/12/14 00:53:55;;;;;;;;;;;;;;;17.46;63.59;101575.59;4987547;28;1825;-40
2021/12/14 00:56:21;;;;;;;;;;;;;;;17.44;63.32;101556.13;4989226;28;1985;-40
2021/12/14 00:58:48;;;;;;;;;;;;;;;17.43;63.55;101580.34;4989390;28;1631;-40
2021/12/14 01:01:17;;;;;;;;;;;;;;;17.44;63.45;101574.84;4988573;28;1897;-40
2021/12/14 01:03:46;;;;;;;;;;;;;;;17.39;63.62;101581.47;4992779;28;1736;-40
2021/12/14 01:06:14;;;;;;;;;;;;;;;17.39;63.48;101582.34;4985548;28;1067;-40
2021/12/14 01:08:42;;;;;;;;;;;;;;;17.37;63.30;101570.91;4992701;28;2037;-40
2021/12/14 01:11:13;;;;;;;;;;;;;;;17.37;63.55;101594.09;4990082;28;1753;-39
2021/12/14 01:13:45;;;;;;;;;;;;;;;17.33;63.31;101580.09;4986138;28;1817;-40
2021/12/14 01:16:16;;;;;;;;;;;;;;;17.32;63.44;101589.06;4986172;28;2024;-40
2021/12/14 01:18:48;;;;;;;;;;;;;;;17.29;63.18;101574.09;4981838;28;1934;-40
2021/12/14 01:21:22;;;;;;;;;;;;;;;17.31;63.45;101595.38;4985406;28;1469;-40
2021/12/14 01:23:59;;;;;;;;;;;;;;;17.31;63.14;101592.72;4993020;28;1789;-40
2021/12/14 01:26:26;;;;;;;;;;;;;;;17.32;63.41;101591.75;4983895;28;2005;-40
2021/12/14 01:28:52;;;;;;;;;;;;;;;17.29;63.28;101581.28;4976704;28;1681;-40
2021/12/14 01:31:24;;;;;;;;;;;;;;;17.30;63.89;101589.16;4993101;28;1104;-40
2021/12/14 01:33:55;;;;;;;;;;;;;;;17.29;63.13;101576.78;4982435;28;1848;-40
2021/12/14 01:36:27;;;;;;;;;;;;;;;17.27;63.37;101575.19;4988021;28;1915;-40
2021/12/14 01:39:10;;;;;;;;;;;;;;;17.25;63.10;101580.63;4987447;28;2110;-41
2021/12/14 01:41:39;;;;;;;;;;;;;;;17.29;63.28;101589.28;4986575;28;1759;-40
2021/12/14 01:44:06;;;;;;;;;;;;;;;17.28;63.09;101584.88;4982615;28;1783;-41
2021/12/14 01:46:34;;;;;;;;;;;;;;;17.27;63.03;101591.22;4992212;28;1780;-40
2021/12/14 01:49:06;;;;;;;;;;;;;;;17.24;63.28;101586.06;4990208;28;2173;-40
2021/12/14 01:51:33;;;;;;;;;;;;;;;17.20;63.42;101581.88;4996026;28;1812;-40
2021/12/14 01:54:00;;;;;;;;;;;;;;;17.19;63.26;101585.50;4990065;28;1882;-40
2021/12/14 01:56:28;;;;;;;;;;;;;;;17.20;63.12;101584.56;4989170;28;1965;-40
2021/12/14 01:58:55;;;;;;;;;;;;;;;17.19;63.35;101598.88;4991083;28;1920;-40
2021/12/14 02:01:24;;;;;;;;;;;;;;;17.17;62.98;101588.31;4990614;28;1809;-40
2021/12/14 02:03:53;;;;;;;;;;;;;;;17.18;63.16;101605.19;4995734;28;1840;-40
2021/12/14 02:06:23;;;;;;;;;;;;;;;17.15;63.43;101600.03;4988736;28;1347;-39
2021/12/14 02:08:55;;;;;;;;;;;;;;;17.16;63.15;101596.41;4989299;28;1711;-40
2021/12/14 02:11:22;;;;;;;;;;;;;;;17.13;62.79;101599.28;4988635;28;1873;-39
2021/12/14 02:13:48;;;;;;;;;;;;;;;17.12;62.99;101602.94;4990298;28;1813;-40
2021/12/14 02:16:17;;;;;;;;;;;;;;;17.16;62.79;101599.09;4995939;28;1910;-40
2021/12/14 02:18:44;;;;;;;;;;;;;;;17.17;63.00;101603.47;4988732;28;1831;-40
2021/12/14 02:21:12;;;;;;;;;;;;;;;17.14;62.95;101593.00;4987707;28;1940;-40
2021/12/14 02:23:42;;;;;;;;;;;;;;;17.16;62.79;101601.75;4996200;28;1965;-40
2021/12/14 02:26:10;;;;;;;;;;;;;;;17.08;62.80;101603.13;4995529;28;1792;-40
2021/12/14 02:28:37;;;;;;;;;;;;;;;17.11;63.16;101604.75;4994430;28;1411;-40
2021/12/14 02:31:05;;;;;;;;;;;;;;;17.10;63.19;101611.88;4983178;28;1829;-40
2021/12/14 02:33:33;;;;;;;;;;;;;;;17.11;62.89;101599.41;4993434;28;1718;-40
2021/12/14 02:36:00;;;;;;;;;;;;;;;17.08;63.24;101592.44;4990614;28;1911;-40
2021/12/14 02:38:28;;;;;;;;;;;;;;;17.10;63.21;101613.72;4985546;28;1820;-40
2021/12/14 02:40:58;;;;;;;;;;;;;;;17.10;62.96;101606.53;4988478;28;2013;-40
2021/12/14 02:43:28;;;;;;;;;;;;;;;17.07;63.28;101598.75;4991058;28;1895;-40
2021/12/14 02:46:02;;;;;;;;;;;;;;;17.09;63.07;101601.31;4985610;28;1818;-40
2021/12/14 02:48:29;;;;;;;;;;;;;;;17.09;63.10;101595.97;4984555;28;1834;-39
2021/12/14 02:50:55;;;;;;;;;;;;;;;17.08;63.06;101600.44;4987342;28;1692;-41
2021/12/14 02:53:22;;;;;;;;;;;;;;;17.06;62.80;101602.38;4980947;28;1852;-40
2021/12/14 02:55:49;;;;;;;;;;;;;;;17.06;62.79;101591.69;4986524;28;1958;-39
2021/12/14 02:58:16;;;;;;;;;;;;;;;17.05;62.99;101597.13;4982802;28;1965;-41
2021/12/14 03:03:19;;;;;;;;;;;;;;;17.01;62.90;101592.94;4184032;26;2646;-40
2021/12/14 03:05:50;;;;;;;;;;;;;;;17.04;62.29;101590.06;4996010;28;2200;-40
2021/12/14 03:08:20;;;;;;;;;;;;;;;16.97;63.14;101589.63;4995039;28;2153;-41
2021/12/14 03:10:58;;;;;;;;;;;;;;;16.95;62.75;101594.22;4993782;28;1651;-40
2021/12/14 03:13:32;;;;;;;;;;;;;;;16.97;62.71;101589.63;4992451;28;1721;-40
2021/12/14 03:16:01;;;;;;;;;;;;;;;16.99;63.21;101610.88;4998554;28;1703;-41
2021/12/14 03:18:29;;;;;;;;;;;;;;;16.95;62.73;101609.38;4999548;28;1902;-40
2021/12/14 03:20:57;;;;;;;;;;;;;;;16.98;63.18;101617.22;5005739;28;1620;-40
2021/12/14 03:23:39;;;;;;;;;;;;;;;16.95;62.68;101602.25;4993569;28;1815;-40
2021/12/14 03:26:27;;;;;;;;;;;;;;;16.91;62.71;101603.41;5001475;28;1583;-40
2021/12/14 03:29:07;;;;;;;;;;;;;;;16.94;62.74;101621.88;4993104;28;1871;-40
2021/12/14 03:31:36;;;;;;;;;;;;;;;16.91;63.06;101611.44;4983983;28;1620;-41
2021/12/14 03:34:12;;;;;;;;;;;;;;;16.92;62.48;101621.13;4995630;28;1084;-42
2021/12/14 03:36:42;;;;;;;;;;;;;;;16.91;62.18;101619.44;4993402;28;1974;-42
2021/12/14 03:39:14;;;;;;;;;;;;;;;16.90;62.97;101609.69;4993682;28;2065;-42
2021/12/14 03:41:45;;;;;;;;;;;;;;;16.92;62.67;101642.50;4993502;28;1630;-45
2021/12/14 03:44:21;;;;;;;;;;;;;;;16.92;63.10;101639.00;4999094;28;1927;-42
2021/12/14 03:46:52;;;;;;;;;;;;;;;16.90;63.22;101623.06;4998689;28;1966;-44
2021/12/14 03:49:22;;;;;;;;;;;;;;;16.90;62.26;101626.56;4994445;28;1860;-42
2021/12/14 03:54:33;;;;;;;;;;;;;;;16.89;63.03;101645.38;4993893;28;2973;-42
2021/12/14 03:56:59;;;;;;;;;;;;;;;16.90;62.86;101644.41;4992981;28;1975;-44
2021/12/14 03:59:32;;;;;;;;;;;;;;;16.91;62.82;101638.13;4992137;28;1644;-42
2021/12/14 04:02:03;;;;;;;;;;;;;;;16.83;63.41;101635.97;4992646;28;1748;-42
2021/12/14 04:04:31;;;;;;;;;;;;;;;16.81;65.19;101635.22;4983528;28;1659;-46
2021/12/14 04:07:07;;;;;;;;;;;;;;;16.73;65.56;101632.13;4993723;28;1629;-43
2021/12/14 04:09:35;;;;;;;;;;;;;;;16.76;66.39;101644.44;4993080;28;1538;-42
2021/12/14 04:12:22;;;;;;;;;;;;;;;16.68;66.61;101629.75;4993189;28;1773;-43
2021/12/14 04:14:56;;;;;;;;;;;;;;;16.69;66.79;101641.28;4994513;28;1864;-42
2021/12/14 04:17:31;;;;;;;;;;;;;;;16.67;66.91;101638.75;4993761;28;1910;-42
2021/12/14 04:20:00;;;;;;;;;;;;;;;16.74;66.88;101638.34;4986450;28;1785;-42
2021/12/14 04:22:27;;;;;;;;;;;;;;;16.81;66.29;101644.97;4990289;28;1675;-43
2021/12/14 04:24:59;;;;;;;;;;;;;;;16.88;66.17;101649.88;4993085;28;1776;-43
2021/12/14 04:27:34;;;;;;;;;;;;;;;16.79;66.77;101646.91;5000734;28;1011;-42
2021/12/14 04:30:08;;;;;;;;;;;;;;;16.72;67.50;101654.47;4987993;28;1953;-42
2021/12/14 04:32:35;;;;;;;;;;;;;;;16.68;67.78;101648.44;4999957;28;1932;-42
2021/12/14 04:35:12;;;;;;;;;;;;;;;16.62;68.20;101672.88;4993118;28;1780;-42
2021/12/14 04:40:37;;;;;;;;;;;;;;;16.58;68.47;101667.84;4992405;28;2662;-42
2021/12/14 04:54:16;;;;;;;;;;;;;;;16.57;68.93;101658.09;5000063;28;1810;-42
2021/12/14 04:56:46;;;;;;;;;;;;;;;16.57;68.94;101685.66;4987986;28;1915;-45
2021/12/14 04:59:23;;;;;;;;;;;;;;;16.60;68.28;101677.47;5003230;28;1819;-42
2021/12/14 05:01:52;;;;;;;;;;;;;;;16.70;67.54;101659.88;4991851;28;1823;-42
2021/12/14 05:04:21;;;;;;;;;;;;;;;16.83;67.18;101675.16;4992227;28;1720;-42
2021/12/14 05:06:52;;;;;;;;;;;;;;;16.80;67.28;101675.34;4992974;28;1064;-42
2021/12/14 05:09:21;;;;;;;;;;;;;;;16.76;67.95;101685.34;4992427;28;1529;-42
2021/12/14 05:11:51;;;;;;;;;;;;;;;16.61;68.87;101692.53;4993103;28;2058;-42
2021/12/14 05:14:18;;;;;;;;;;;;;;;16.56;69.17;101680.44;4993472;28;1954;-42
2021/12/14 05:16:48;;;;;;;;;;;;;;;16.56;69.41;101705.31;4993436;28;1992;-42
2021/12/14 05:19:26;;;;;;;;;;;;;;;16.48;69.10;101702.28;4994135;28;1984;-42
2021/12/14 05:22:01;;;;;;;;;;;;;;;16.49;69.54;101704.84;4996946;28;1601;-43
2021/12/14 05:24:29;;;;;;;;;;;;;;;16.47;69.59;101695.19;4995931;28;1754;-42
2021/12/14 05:27:01;;;;;;;;;;;;;;;16.50;69.97;101703.88;4996847;28;1438;-42
2021/12/14 05:29:31;;;;;;;;;;;;;;;16.49;68.74;101703.97;4994922;28;1808;-42
2021/12/14 05:32:01;;;;;;;;;;;;;;;16.45;69.17;101699.78;5001252;28;1986;-42
2021/12/14 05:34:30;;;;;;;;;;;;;;;16.55;69.42;101719.59;4992672;28;1469;-43
2021/12/14 05:37:07;;;;;;;;;;;;;;;16.54;69.04;101707.22;4986688;28;1989;-42
2021/12/14 05:45:08;;;;;;;;;;;;;;;16.57;69.26;101724.84;4982441;28;2631;-42
2021/12/14 05:47:43;;;;;;;;;;;;;;;16.58;69.64;101730.09;5000117;28;1749;-42
2021/12/14 05:50:27;;;;;;;;;;;;;;;16.60;68.76;101730.03;4988927;28;1216;-42
2021/12/14 05:52:57;;;;;;;;;;;;;;;16.57;68.60;101727.53;4994760;28;1978;-42
2021/12/14 05:55:35;;;;;;;;;;;;;;;16.57;67.13;101719.53;4995816;28;2037;-41
2021/12/14 05:58:06;;;;;;;;;;;;;;;16.54;66.86;101725.06;4999722;28;1906;-42
2021/12/14 06:00:35;;;;;;;;;;;;;;;16.56;67.17;101732.03;4996426;28;1778;-42
2021/12/14 06:03:04;;;;;;;;;;;;;;;16.50;67.42;101719.06;4994793;28;1461;-43
2021/12/14 06:05:34;;;;;;;;;;;;;;;16.51;67.87;101734.09;4992145;28;1693;-42
2021/12/14 06:08:01;;;;;;;;;;;;;;;16.51;67.80;101728.75;4995309;28;2019;-42
2021/12/14 06:10:31;;;;;;;;;;;;;;;16.53;68.22;101724.19;4995704;28;1434;-42
2021/12/14 06:13:00;;;;;;;;;;;;;;;16.57;67.42;101716.84;4994142;28;1936;-44
2021/12/14 06:15:28;;;;;;;;;;;;;;;16.58;68.30;101727.44;4992927;28;1497;-43
2021/12/14 06:17:55;;;;;;;;;;;;;;;16.50;67.48;101709.22;4993824;28;1911;-43
2021/12/14 06:23:10;;;;;;;;;;;;;;;16.41;68.29;101722.28;4976755;28;2238;-43
2021/12/14 06:25:44;;;;;;;;;;;;;;;16.49;67.99;101720.88;4994421;28;1421;-42
2021/12/14 06:31:01;;;;;;;;;;;;;;;16.50;68.01;101727.91;5002393;28;1791;-42
2021/12/14 06:33:32;;;;;;;;;;;;;;;16.55;68.04;101729.44;4994839;28;1804;-42
2021/12/14 06:36:02;;;;;;;;;;;;;;;17.03;67.47;101730.84;4995567;28;1456;-43
2021/12/14 06:38:46;;;;;;;;;;;;;;;17.39;66.70;101726.72;5005177;28;1988;-41
2021/12/14 06:41:15;;;;;;;;;;;;;;;17.88;65.61;101734.16;5008436;28;1454;-42
2021/12/14 06:43:52;;;;;;;;;;;;;;;18.33;64.49;101736.44;4992080;28;1535;-43
2021/12/14 06:46:42;;;;;;;;;;;;;;;18.74;62.40;101745.19;4996992;28;1114;-41
2021/12/14 06:49:10;;;;;;;;;;;;;;;18.71;63.37;101738.22;4994426;28;1943;-41
2021/12/14 06:51:39;;;;;;;;;;;;;;;18.93;61.85;101740.25;5002708;28;2073;-42
2021/12/14 06:54:13;;;;;;;;;;;;;;;18.96;62.01;101742.72;4994630;28;1643;-42
2021/12/14 06:56:40;;;;;;;;;;;;;;;19.08;61.65;101736.44;4994489;28;1599;-42
2021/12/14 06:59:08;;;;;;;;;;;;;;;19.04;62.40;101745.69;4999834;28;1914;-42
2021/12/14 07:01:40;;;;;;;;;;;;;;;19.29;61.35;101743.88;5011428;28;1779;-42
2021/12/14 07:04:10;;;;;;;;;;;;;;;19.35;60.59;101754.16;5001047;28;1444;-42
2021/12/14 07:06:46;;;;;;;;;;;;;;;19.45;61.20;101748.94;4994358;28;1629;-43
2021/12/14 07:09:20;;;;;;;;;;;;;;;19.55;60.31;101757.16;5006468;28;1913;-42
2021/12/14 07:11:52;;;;;;;;;;;;;;;19.70;60.88;101758.72;4979961;28;1815;-42
2021/12/14 07:14:22;;;;;;;;;;;;;;;19.80;60.33;101758.91;4994757;28;1765;-41
2021/12/14 07:16:50;;;;;;;;;;;;;;;19.90;59.94;101769.78;5006654;28;1730;-42
2021/12/14 07:19:19;;;;;;;;;;;;;;;19.97;59.13;101779.06;5005146;28;1879;-42
2021/12/14 07:21:50;;;;;;;;;;;;;;;20.03;59.36;101770.53;4996034;28;1616;-41
2021/12/14 07:24:36;;;;;;;;;;;;;;;20.08;58.64;101775.59;5002015;28;1843;-42
2021/12/14 07:27:44;;;;;;;;;;;;;;;20.39;57.83;101774.03;5008509;28;1909;-42
2021/12/14 07:30:18;;;;;;;;;;;;;;;21.18;57.02;101764.13;4990708;28;1804;-41
2021/12/14 07:32:48;;;;;;;;;;;;;;;21.95;54.77;101762.31;4993660;28;1874;-41
2021/12/14 07:35:18;;;;;;;;;;;;;;;22.78;52.85;101764.06;4995074;28;1714;-41
2021/12/14 07:37:45;;;;;;;;;;;;;;;22.18;54.56;101768.41;4993683;28;2354;-41
2021/12/14 07:40:19;;;;;;;;;;;;;;;22.29;54.44;101756.75;4994263;28;1508;-42
2021/12/14 07:42:45;;;;;;;;;;;;;;;22.23;54.69;101764.31;4998770;28;1909;-42
2021/12/14 07:45:12;;;;;;;;;;;;;;;21.77;56.28;101765.56;4993186;28;1779;-42
2021/12/14 07:47:50;;;;;;;;;;;;;;;20.88;58.52;101783.63;5001793;28;1673;-42
2021/12/14 07:50:17;;;;;;;;;;;;;;;20.56;60.11;101805.81;5005692;28;1783;-41
2021/12/14 07:52:44;;;;;;;;;;;;;;;20.44;60.12;101806.78;4993145;28;1713;-41
2021/12/14 07:55:21;;;;;;;;;;;;;;;19.95;60.84;101806.03;5012889;28;999;-42
2021/12/14 07:57:51;;;;;;;;;;;;;;;19.71;61.85;101787.28;4998722;28;1906;-42
2021/12/14 08:00:21;;;;;;;;;;;;;;;19.83;60.85;101791.72;4993029;28;1811;-42
2021/12/14 08:02:49;;;;;;;;;;;;;;;19.74;62.13;101805.84;4993732;28;1798;-41
2021/12/14 08:05:19;;;;;;;;;;;;;;;19.43;62.69;101805.41;4999573;28;1823;-42
2021/12/14 08:07:48;;;;;;;;;;;;;;;19.23;63.26;101789.91;5000175;28;1767;-42
2021/12/14 08:10:21;;;;;;;;;;;;;;;19.20;62.65;101808.91;4993122;28;1608;-42
2021/12/14 08:12:51;;;;;;;;;;;;;;;19.08;63.38;101803.47;4988369;28;1575;-42
2021/12/14 08:15:24;;;;;;;;;;;;;;;18.93;63.43;101807.25;4996512;28;1500;-43
2021/12/14 08:18:06;;;;;;;;;;;;;;;18.73;64.05;101797.91;4999918;28;1903;-42
2021/12/14 08:20:42;;;;;;;;;;;;;;;18.75;64.60;101809.38;4994603;28;1968;-43
2021/12/14 08:23:14;;;;;;;;;;;;;;;18.71;65.51;101809.72;4996186;28;1855;-42
2021/12/14 08:25:41;;;;;;;;;;;;;;;18.63;65.53;101805.75;4988773;28;1150;-42
2021/12/14 08:28:11;;;;;;;;;;;;;;;18.68;65.50;101805.41;4989487;28;2002;-43
2021/12/14 08:30:40;;;;;;;;;;;;;;;18.47;66.10;101803.28;4991699;28;1867;-41
2021/12/14 08:36:15;;;;;;;;;;;;;;;18.33;66.51;101805.22;4987137;28;2618;-40
2021/12/14 08:38:46;;;;;;;;;;;;;;;18.40;66.03;101806.47;4994794;28;1991;-41
2021/12/14 08:41:33;;;;;;;;;;;;;;;18.34;65.65;101801.56;4992422;28;1775;-42
2021/12/14 08:44:10;;;;;;;;;;;;;;;18.32;66.49;101790.09;5009555;28;1710;-43
2021/12/14 08:46:38;;;;;;;;;;;;;;;18.38;66.22;101792.34;4986570;28;1457;-43
2021/12/14 08:49:09;;;;;;;;;;;;;;;18.39;66.24;101786.03;4992018;28;1709;-42
2021/12/14 08:51:37;;;;;;;;;;;;;;;19.12;64.69;101796.06;4995680;28;1906;-42
2021/12/14 08:54:07;;;;;;;;;;;;;;;19.81;63.00;101788.28;4993564;28;1728;-43
2021/12/14 08:56:36;;;;;;;;;;;;;;;20.22;61.42;101797.69;4992821;28;1687;-42
2021/12/14 08:59:05;;;;;;;;;;;;;;;20.78;61.86;101802.31;5005778;28;1906;-42
2021/12/14 10:44:47;;;;;;;;;;;;;;;18.07;67.23;101732.91;5101507;27;1696;-49
2021/12/14 10:47:15;;;;;;;;;;;;;;;18.16;67.48;101737.59;5092598;28;1093;-50
2021/12/14 10:49:42;;;;;;;;;;;;;;;17.52;59.20;101736.59;5087085;28;1722;-50
2021/12/14 10:52:14;;;;;;;;;;;;;;;17.77;67.21;101719.78;5086998;28;1766;-50
2021/12/14 10:54:41;;;;;;;;;;;;;;;18.06;66.78;101739.19;5087844;28;1902;-51
2021/12/14 10:57:09;;;;;;;;;;;;;;;17.80;66.23;101719.56;5087010;28;1871;-51
2021/12/14 10:59:37;;;;;;;;;;;;;;;18.26;65.28;101727.13;5090678;28;1998;-50
2021/12/14 11:02:05;;;;;;;;;;;;;;;18.57;64.44;101731.16;5092768;28;1755;-53
2021/12/14 11:04:38;;;;;;;;;;;;;;;18.86;65.04;101728.25;5081893;28;1691;-51
2021/12/14 11:07:07;;;;;;;;;;;;;;;19.01;64.94;101729.81;5085574;28;1391;-51
2021/12/14 11:09:45;;;;;;;;;;;;;;;19.14;64.36;101702.09;5083244;28;1238;-52
2021/12/14 11:12:16;;;;;;;;;;;;;;;19.20;63.40;101717.72;5085902;28;1640;-51
2021/12/14 11:14:44;;;;;;;;;;;;;;;19.27;63.35;101710.94;5087356;28;1931;-51
2021/12/14 11:19:58;;;;;;;;;;;;;;;19.38;63.70;101705.66;5086788;28;1667;-51
2021/12/14 11:22:25;;;;;;;;;;;;;;;19.39;63.82;101717.22;5083778;28;1843;-50
2021/12/14 11:24:55;;;;;;;;;;;;;;;19.35;63.49;101705.03;5083519;28;1680;-51
2021/12/14 11:27:24;;;;;;;;;;;;;;;19.35;64.23;101692.44;5085855;28;1797;-51
2021/12/14 11:29:52;;;;;;;;;;;;;;;19.33;63.97;101710.50;5085286;28;1760;-50
2021/12/14 11:32:22;;;;;;;;;;;;;;;19.29;64.03;101706.31;5086231;28;2390;-51
2021/12/14 11:34:49;;;;;;;;;;;;;;;19.25;64.03;101711.06;5089321;28;1905;-51
2021/12/14 11:37:21;;;;;;;;;;;;;;;19.20;64.20;101717.72;5096425;28;2111;-51
2021/12/14 11:39:49;;;;;;;;;;;;;;;19.23;64.56;101709.47;5084400;28;1629;-50
2021/12/14 11:42:22;;;;;;;;;;;;;;;19.18;64.99;101730.38;5090407;28;2121;-50
2021/12/14 11:44:50;;;;;;;;;;;;;;;19.15;65.04;101723.44;5093945;28;1806;-49
2021/12/14 11:47:41;;;;;;;;;;;;;;;19.14;65.12;101718.19;5088418;28;1058;-49
2021/12/14 11:50:14;;;;;;;;;;;;;;;19.05;64.47;101709.84;5095397;28;1959;-49
2021/12/14 11:52:50;;;;;;;;;;;;;;;19.06;65.25;101733.03;5087936;28;2057;-50
2021/12/14 11:55:32;;;;;;;;;;;;;;;19.03;64.16;101721.66;5077011;28;1594;-50
2021/12/14 11:58:04;;;;;;;;;;;;;;;19.04;65.66;101726.06;5067896;28;2083;-50
2021/12/14 12:00:31;;;;;;;;;;;;;;;18.99;65.12;101721.03;5078439;28;1817;-49
2021/12/14 12:02:59;;;;;;;;;;;;;;;18.96;65.31;101729.31;5071497;28;1696;-50
2021/12/14 12:05:30;;;;;;;;;;;;;;;18.87;65.28;101721.94;5073385;28;1805;-49
2021/12/14 12:10:54;;;;;;;;;;;;;;;18.81;65.50;101733.94;5061223;28;1210;-49
2021/12/14 12:13:33;;;;;;;;;;;;;;;18.83;65.62;101742.72;5070756;28;2276;-49
2021/12/14 12:16:08;;;;;;;;;;;;;;;18.81;66.06;101727.75;5072812;28;1993;-49
2021/12/14 12:18:36;;;;;;;;;;;;;;;18.10;51.02;101732.69;5069173;28;2231;-51
2021/12/14 12:21:03;;;;;;;;;;;;;;;17.20;63.59;101747.59;5078087;28;1778;-49
2021/12/14 12:23:30;;;;;;;;;;;;;;;18.08;64.79;101721.22;5080760;28;1698;-49
2021/12/14 12:26:00;;;;;;;;;;;;;;;18.37;65.66;101721.03;5077121;28;942;-49
2021/12/14 12:28:27;;;;;;;;;;;;;;;18.43;66.05;101712.56;5073370;28;1829;-49
2021/12/14 12:30:55;;;;;;;;;;;;;;;18.51;66.06;101728.09;5072253;28;1868;-49
2021/12/14 12:33:24;;;;;;;;;;;;;;;18.51;65.77;101720.03;5081466;28;1971;-49
2021/12/14 12:35:54;;;;;;;;;;;;;;;18.53;65.90;101728.84;5082576;28;1603;-49
2021/12/14 12:38:32;;;;;;;;;;;;;;;18.54;65.54;101720.66;5076372;28;1635;-50
2021/12/14 12:41:02;;;;;;;;;;;;;;;18.54;66.11;101714.44;5074196;28;1083;-49
2021/12/14 12:43:32;;;;;;;;;;;;;;;18.51;66.07;101720.91;5084087;28;1917;-49
2021/12/14 12:46:04;;;;;;;;;;;;;;;18.52;66.07;101724.41;5084401;28;1848;-49
2021/12/14 12:48:45;;;;;;;;;;;;;;;18.46;66.14;101713.19;5075475;28;1937;-50
2021/12/14 12:51:33;;;;;;;;;;;;;;;18.47;65.83;101714.03;5084183;28;1826;-49
2021/12/14 12:54:09;;;;;;;;;;;;;;;18.51;65.79;101720.91;5071149;28;1976;-51
2021/12/14 12:56:37;;;;;;;;;;;;;;;18.44;66.21;101724.97;5073842;28;1786;-49
2021/12/14 12:59:06;;;;;;;;;;;;;;;18.39;66.38;101716.41;5081317;28;1774;-49
2021/12/14 13:01:32;;;;;;;;;;;;;;;18.40;66.03;101712.75;5070921;28;1648;-49
2021/12/14 13:03:59;;;;;;;;;;;;;;;18.40;66.00;101712.75;5072124;28;1079;-49
2021/12/14 13:06:26;;;;;;;;;;;;;;;18.37;66.63;101721.03;5082690;28;1895;-48
2021/12/14 13:08:57;;;;;;;;;;;;;;;18.38;66.25;101715.56;5083441;28;1856;-49
2021/12/14 13:11:25;;;;;;;;;;;;;;;18.35;66.70;101710.41;5053409;28;1896;-50
2021/12/14 13:13:53;;;;;;;;;;;;;;;18.38;65.81;101720.91;5070930;28;1985;-49
2021/12/14 13:16:21;;;;;;;;;;;;;;;18.39;66.70;101721.78;5072891;28;1042;-49
2021/12/14 13:18:55;;;;;;;;;;;;;;;18.39;66.55;101711.06;5082991;28;1739;-49
2021/12/14 13:21:28;;;;;;;;;;;;;;;18.45;66.46;101732.91;5071797;28;2158;-49
2021/12/14 13:24:00;;;;;;;;;;;;;;;18.55;66.40;101711.66;5083519;28;1949;-49
2021/12/14 13:26:31;;;;;;;;;;;;;;;18.60;65.91;101722.94;5055407;28;2002;-49
2021/12/14 13:29:00;;;;;;;;;;;;;;;18.62;66.20;101704.91;5082721;28;1854;-49
2021/12/14 13:31:28;;;;;;;;;;;;;;;18.69;65.16;101729.44;5084462;28;1057;-49
2021/12/14 13:33:55;;;;;;;;;;;;;;;18.66;66.14;101711.78;5070673;28;1963;-49
2021/12/14 13:36:21;;;;;;;;;;;;;;;18.69;65.63;101730.28;5082901;28;1943;-48
2021/12/14 13:38:50;;;;;;;;;;;;;;;18.69;65.68;101708.84;5080968;28;1724;-49
2021/12/14 13:41:29;;;;;;;;;;;;;;;18.69;65.90;101711.53;5072715;28;1730;-50
2021/12/14 13:43:56;;;;;;;;;;;;;;;18.71;65.96;101706.06;5070425;28;1720;-49
2021/12/14 13:46:22;;;;;;;;;;;;;;;18.73;65.91;101709.50;5082923;28;986;-49
2021/12/14 13:48:49;;;;;;;;;;;;;;;18.74;65.57;101699.63;5083134;28;1786;-49
2021/12/14 13:51:17;;;;;;;;;;;;;;;18.76;65.11;101703.94;5071468;28;1801;-49
2021/12/14 13:53:45;;;;;;;;;;;;;;;18.79;65.17;101692.13;5067545;28;1996;-49
2021/12/14 13:56:13;;;;;;;;;;;;;;;18.86;64.72;101709.47;5072045;28;1989;-50
2021/12/14 13:58:41;;;;;;;;;;;;;;;18.85;65.40;101708.63;5072181;28;1070;-49
2021/12/14 14:01:09;;;;;;;;;;;;;;;18.86;65.19;101729.13;5082880;28;1955;-49
2021/12/14 14:03:37;;;;;;;;;;;;;;;18.85;64.81;101716.66;5082942;28;1995;-48
2021/12/14 14:06:05;;;;;;;;;;;;;;;18.81;65.26;101711.66;5076267;28;1773;-49
2021/12/14 14:08:33;;;;;;;;;;;;;;;18.82;64.80;101724.06;5072483;28;1802;-48
2021/12/14 14:11:00;;;;;;;;;;;;;;;18.83;65.28;101736.53;5073161;28;1015;-49
2021/12/14 14:13:30;;;;;;;;;;;;;;;16.69;52.85;101740.97;5071065;28;1902;-49
2021/12/14 14:15:57;;;;;;;;;;;;;;;17.61;64.28;101741.34;5068093;28;1931;-50
2021/12/14 14:18:28;;;;;;;;;;;;;;;18.29;64.66;101725.09;5073136;28;1806;-49
2021/12/14 14:20:54;;;;;;;;;;;;;;;18.54;65.01;101715.31;5079169;28;1746;-49
2021/12/14 14:23:23;;;;;;;;;;;;;;;18.64;64.85;101726.22;5072271;28;1868;-49
2021/12/14 14:25:54;;;;;;;;;;;;;;;18.64;64.53;101719.06;5069457;28;1789;-49
2021/12/14 14:28:25;;;;;;;;;;;;;;;18.63;65.16;101729.88;5067815;28;1878;-56
2021/12/14 14:30:54;;;;;;;;;;;;;;;18.70;64.27;101733.81;5070458;28;1795;-55
2021/12/14 14:33:23;;;;;;;;;;;;;;;18.75;64.63;101739.72;5071439;28;1810;-55
2021/12/14 14:35:51;;;;;;;;;;;;;;;18.79;65.02;101733.19;5069271;28;1969;-56
2021/12/14 14:38:28;;;;;;;;;;;;;;;18.82;64.63;101729.44;5068186;28;1945;-55
2021/12/14 14:40:56;;;;;;;;;;;;;;;18.85;64.54;101737.25;5072146;28;1350;-55
2021/12/14 14:43:22;;;;;;;;;;;;;;;18.82;64.26;101735.66;5075273;28;1704;-55
2021/12/14 14:45:49;;;;;;;;;;;;;;;18.87;65.02;101741.53;5076274;28;2097;-56
2021/12/14 15:37:25;;;;;;;;;;;;;;;18.99;65.43;101780.00;5076114;28;1579;-51
2021/12/14 15:39:51;;;;;;;;;;;;;;;18.92;65.48;101783.22;5086653;28;1388;-50
2021/12/14 15:42:21;;;;;;;;;;;;;;;18.97;65.42;101789.97;5085786;28;1765;-54
2021/12/14 15:44:50;;;;;;;;;;;;;;;18.94;64.61;101779.50;5078156;28;1785;-52
2021/12/14 15:47:17;;;;;;;;;;;;;;;18.95;64.86;101777.66;5086341;28;1543;-52
2021/12/14 15:49:43;;;;;;;;;;;;;;;18.91;65.11;101787.75;5071541;28;1840;-53
2021/12/14 15:52:15;;;;;;;;;;;;;;;18.88;65.26;101788.81;5077367;28;1734;-52
2021/12/14 15:54:42;;;;;;;;;;;;;;;18.86;65.46;101774.69;5081546;28;1909;-53
2021/12/14 15:57:12;;;;;;;;;;;;;;;18.85;65.10;101777.47;5072296;28;1725;-53
2021/12/14 15:59:41;;;;;;;;;;;;;;;18.83;65.46;101779.41;5075285;28;1872;-52
2021/12/14 16:02:09;;;;;;;;;;;;;;;18.85;65.27;101788.19;5073042;28;1625;-53
2021/12/14 16:04:38;;;;;;;;;;;;;;;18.82;65.73;101788.38;5072431;28;1554;-53
2021/12/14 16:07:06;;;;;;;;;;;;;;;18.78;65.16;101794.91;5072732;28;1806;-53
2021/12/14 16:09:34;;;;;;;;;;;;;;;18.73;65.67;101794.38;5074235;28;1284;-52
2021/12/14 16:15:06;;;;;;;;;;;;;;;18.69;65.92;101791.06;5074740;28;1714;-51
2021/12/14 16:15:09;;;;;;;;;;;;;;;18.66;66.06;101797.50;5073292;28;1910;-52
2021/12/14 16:17:37;;;;;;;;;;;;;;;18.65;66.03;101790.41;5065417;28;1820;-51